Airfield :
LOGIN :

Register | Disclaimer

   EN    FR    IT 

 










Legend :    VFR   Marginal VFR   IFR   Intensive IFR   Very Intensive IFR
Visi :
Ceiling :
>= 8 km
>= 3000ft
5 to 8 km
1000 to 3000 ft
1500m to 5 km
500 to 1000 ft
800 to 1500m
200 to 500 ft
< 800m
< 200 ft
Symbols :   Thunderstorms  Fog  Heavy snow  Heavy precipitations  Wind > 20 kt
SIGMETs :     Misc.  Thunderstorms  Icing  Turbulence  Mountain Waves  Volcanic Ashes







- Airport Elevation : 122 ft
- IATA code : TXL


EDDT - Berlin Tegel Int.

CURRENT METAR :
  • 261120Z 28012G22KT 210V330 CAVOK 36/16 Q1018 TEMPO 28015G25KT

EXPIRED METARs :
  • 261050Z 27010G22KT 230V300 CAVOK 36/17 Q1019 NOSIG
  • 261020Z 28010KT 240V320 CAVOK 35/17 Q1019 NOSIG
  • 260950Z 27008KT 230V320 CAVOK 35/17 Q1019 NOSIG
  • 260920Z 26008KT 190V300 CAVOK 34/18 Q1019 NOSIG
  • 260850Z 25007KT 210V290 CAVOK 33/18 Q1019 NOSIG

TAF TAF EDDT
Valid from the 26 at 12:00 until the 27 at 12:00 UTC


261100Z 2612/2712 28012KT CAVOK
TEMPO 2612/2618 28015G25KT
No reported NOTAMs for that airfield.



MET'MAP, your aeronautical weather chart ! - Copyright ORBIFLY December 2007 - Disclaimer

ORBIFLY MET'MAP TEAM :

Programming & Development : Alexandra Zaïnal
Concept & Development : Baudouin d'Aumeries
Co-Development & Prog : Marc-Olivier Méhu
Technical & hardware support : Manuel Goepfert

Contact : metmap@orbifly.com




SOURCES & CREDITS :

   NOAA